sensor_id;sensor_type;location;lat;lon;timestamp;P1;durP1;ratioP1;P2;durP2;ratioP2
71896;SDS011;59767;51.344;12.362;2022-10-30T00:02:38;27.38;;;7.40;;
71896;SDS011;59767;51.344;12.362;2022-10-30T00:05:43;27.08;;;8.43;;
71896;SDS011;59767;51.344;12.362;2022-10-30T00:08:48;26.83;;;7.63;;
71896;SDS011;59767;51.344;12.362;2022-10-30T00:11:52;22.73;;;7.55;;
71896;SDS011;59767;51.344;12.362;2022-10-30T00:14:56;22.88;;;7.68;;
71896;SDS011;59767;51.344;12.362;2022-10-30T00:18:01;25.08;;;7.97;;
71896;SDS011;59767;51.344;12.362;2022-10-30T00:21:06;25.65;;;7.57;;
71896;SDS011;59767;51.344;12.362;2022-10-30T00:24:11;20.13;;;7.72;;
71896;SDS011;59767;51.344;12.362;2022-10-30T00:27:15;24.38;;;8.00;;
71896;SDS011;59767;51.344;12.362;2022-10-30T00:30:19;21.63;;;7.90;;
71896;SDS011;59767;51.344;12.362;2022-10-30T00:33:23;23.08;;;7.40;;
71896;SDS011;59767;51.344;12.362;2022-10-30T00:36:27;28.38;;;7.80;;
71896;SDS011;59767;51.344;12.362;2022-10-30T00:39:31;25.92;;;8.05;;
71896;SDS011;59767;51.344;12.362;2022-10-30T00:42:35;23.92;;;8.00;;
71896;SDS011;59767;51.344;12.362;2022-10-30T00:45:39;22.48;;;7.43;;
71896;SDS011;59767;51.344;12.362;2022-10-30T00:48:43;23.30;;;8.00;;
71896;SDS011;59767;51.344;12.362;2022-10-30T00:51:51;19.08;;;7.70;;
71896;SDS011;59767;51.344;12.362;2022-10-30T00:54:57;31.98;;;7.63;;
71896;SDS011;59767;51.344;12.362;2022-10-30T00:58:08;24.15;;;7.60;;
71896;SDS011;59767;51.344;12.362;2022-10-30T01:01:17;25.85;;;7.57;;
71896;SDS011;59767;51.344;12.362;2022-10-30T01:04:25;21.27;;;7.30;;
71896;SDS011;59767;51.344;12.362;2022-10-30T01:07:33;23.80;;;8.02;;
71896;SDS011;59767;51.344;12.362;2022-10-30T01:10:37;19.25;;;7.20;;
71896;SDS011;59767;51.344;12.362;2022-10-30T01:13:41;21.25;;;7.88;;
71896;SDS011;59767;51.344;12.362;2022-10-30T01:16:54;17.27;;;7.05;;
71896;SDS011;59767;51.344;12.362;2022-10-30T01:34:02;24.23;;;7.85;;
71896;SDS011;59767;51.344;12.362;2022-10-30T01:40:24;21.33;;;7.32;;
71896;SDS011;59767;51.344;12.362;2022-10-30T01:43:28;19.63;;;6.75;;
71896;SDS011;59767;51.344;12.362;2022-10-30T01:46:41;27.30;;;7.25;;
71896;SDS011;59767;51.344;12.362;2022-10-30T02:00:37;23.10;;;7.15;;
71896;SDS011;59767;51.344;12.362;2022-10-30T02:03:44;22.90;;;6.75;;
71896;SDS011;59767;51.344;12.362;2022-10-30T02:06:49;17.10;;;6.95;;
71896;SDS011;59767;51.344;12.362;2022-10-30T02:09:53;20.75;;;6.43;;
71896;SDS011;59767;51.344;12.362;2022-10-30T02:12:58;17.50;;;6.80;;
71896;SDS011;59767;51.344;12.362;2022-10-30T02:16:02;21.20;;;7.07;;
71896;SDS011;59767;51.344;12.362;2022-10-30T02:19:07;20.55;;;6.63;;
71896;SDS011;59767;51.344;12.362;2022-10-30T02:22:11;20.02;;;7.05;;
71896;SDS011;59767;51.344;12.362;2022-10-30T02:25:15;18.73;;;7.07;;
71896;SDS011;59767;51.344;12.362;2022-10-30T02:28:19;25.80;;;7.03;;
71896;SDS011;59767;51.344;12.362;2022-10-30T02:31:23;21.45;;;6.70;;
71896;SDS011;59767;51.344;12.362;2022-10-30T02:34:27;18.20;;;6.20;;
71896;SDS011;59767;51.344;12.362;2022-10-30T02:37:32;22.55;;;6.30;;
71896;SDS011;59767;51.344;12.362;2022-10-30T02:40:38;19.73;;;6.85;;
71896;SDS011;59767;51.344;12.362;2022-10-30T02:43:41;22.13;;;6.90;;
71896;SDS011;59767;51.344;12.362;2022-10-30T02:46:45;20.20;;;6.40;;
71896;SDS011;59767;51.344;12.362;2022-10-30T02:49:49;22.58;;;6.63;;
71896;SDS011;59767;51.344;12.362;2022-10-30T02:52:53;22.15;;;6.13;;
71896;SDS011;59767;51.344;12.362;2022-10-30T02:56:02;20.35;;;6.28;;
71896;SDS011;59767;51.344;12.362;2022-10-30T02:59:07;21.80;;;7.13;;
71896;SDS011;59767;51.344;12.362;2022-10-30T03:02:11;23.52;;;6.93;;
71896;SDS011;59767;51.344;12.362;2022-10-30T03:05:15;19.48;;;6.63;;
71896;SDS011;59767;51.344;12.362;2022-10-30T03:08:19;17.73;;;6.50;;
71896;SDS011;59767;51.344;12.362;2022-10-30T03:11:23;17.98;;;6.70;;
71896;SDS011;59767;51.344;12.362;2022-10-30T03:14:27;18.40;;;6.00;;
71896;SDS011;59767;51.344;12.362;2022-10-30T03:17:31;16.33;;;6.00;;
71896;SDS011;59767;51.344;12.362;2022-10-30T03:20:35;20.25;;;7.13;;
71896;SDS011;59767;51.344;12.362;2022-10-30T03:23:39;19.10;;;6.80;;
71896;SDS011;59767;51.344;12.362;2022-10-30T03:26:43;26.92;;;6.88;;
71896;SDS011;59767;51.344;12.362;2022-10-30T03:29:48;16.70;;;6.60;;
71896;SDS011;59767;51.344;12.362;2022-10-30T03:32:51;17.83;;;6.28;;
71896;SDS011;59767;51.344;12.362;2022-10-30T03:35:56;14.70;;;6.13;;
71896;SDS011;59767;51.344;12.362;2022-10-30T03:39:00;20.30;;;6.80;;
71896;SDS011;59767;51.344;12.362;2022-10-30T03:42:04;20.65;;;6.70;;
71896;SDS011;59767;51.344;12.362;2022-10-30T03:45:08;21.02;;;6.32;;
71896;SDS011;59767;51.344;12.362;2022-10-30T03:48:12;16.35;;;6.07;;
71896;SDS011;59767;51.344;12.362;2022-10-30T03:51:16;19.25;;;6.35;;
71896;SDS011;59767;51.344;12.362;2022-10-30T03:54:20;17.00;;;6.63;;
71896;SDS011;59767;51.344;12.362;2022-10-30T03:57:24;17.65;;;6.20;;
71896;SDS011;59767;51.344;12.362;2022-10-30T04:00:27;18.48;;;6.60;;
71896;SDS011;59767;51.344;12.362;2022-10-30T04:03:32;20.60;;;6.90;;
71896;SDS011;59767;51.344;12.362;2022-10-30T04:06:37;19.73;;;6.55;;
71896;SDS011;59767;51.344;12.362;2022-10-30T04:09:44;19.52;;;6.47;;
71896;SDS011;59767;51.344;12.362;2022-10-30T04:12:47;24.42;;;6.53;;
71896;SDS011;59767;51.344;12.362;2022-10-30T04:15:52;24.27;;;6.30;;
71896;SDS011;59767;51.344;12.362;2022-10-30T04:18:59;19.63;;;6.60;;
71896;SDS011;59767;51.344;12.362;2022-10-30T04:22:03;21.35;;;6.75;;
71896;SDS011;59767;51.344;12.362;2022-10-30T04:25:07;19.60;;;7.10;;
71896;SDS011;59767;51.344;12.362;2022-10-30T04:28:12;22.85;;;6.85;;
71896;SDS011;59767;51.344;12.362;2022-10-30T04:31:16;18.98;;;6.10;;
71896;SDS011;59767;51.344;12.362;2022-10-30T04:34:20;22.35;;;6.85;;
71896;SDS011;59767;51.344;12.362;2022-10-30T04:37:25;16.80;;;6.55;;
71896;SDS011;59767;51.344;12.362;2022-10-30T04:40:30;18.13;;;6.30;;
71896;SDS011;59767;51.344;12.362;2022-10-30T04:43:35;20.25;;;6.43;;
71896;SDS011;59767;51.344;12.362;2022-10-30T04:46:39;17.55;;;5.80;;
71896;SDS011;59767;51.344;12.362;2022-10-30T04:49:43;17.75;;;5.80;;
71896;SDS011;59767;51.344;12.362;2022-10-30T04:52:47;19.15;;;6.15;;
71896;SDS011;59767;51.344;12.362;2022-10-30T04:55:52;21.90;;;5.82;;
71896;SDS011;59767;51.344;12.362;2022-10-30T04:58:56;18.65;;;5.90;;
71896;SDS011;59767;51.344;12.362;2022-10-30T05:02:00;16.60;;;5.78;;
71896;SDS011;59767;51.344;12.362;2022-10-30T05:05:05;21.02;;;5.97;;
71896;SDS011;59767;51.344;12.362;2022-10-30T05:08:09;22.83;;;6.00;;
71896;SDS011;59767;51.344;12.362;2022-10-30T05:11:13;19.20;;;5.40;;
71896;SDS011;59767;51.344;12.362;2022-10-30T05:14:17;19.13;;;5.47;;
71896;SDS011;59767;51.344;12.362;2022-10-30T05:17:22;19.58;;;5.30;;
71896;SDS011;59767;51.344;12.362;2022-10-30T05:20:25;17.10;;;5.53;;
71896;SDS011;59767;51.344;12.362;2022-10-30T05:23:29;15.88;;;5.10;;
71896;SDS011;59767;51.344;12.362;2022-10-30T05:26:33;16.23;;;5.50;;
71896;SDS011;59767;51.344;12.362;2022-10-30T05:29:37;18.48;;;5.22;;
71896;SDS011;59767;51.344;12.362;2022-10-30T05:32:41;19.75;;;5.78;;
71896;SDS011;59767;51.344;12.362;2022-10-30T05:35:45;20.52;;;5.50;;
71896;SDS011;59767;51.344;12.362;2022-10-30T05:38:49;17.95;;;5.82;;
71896;SDS011;59767;51.344;12.362;2022-10-30T05:41:53;16.15;;;5.28;;
71896;SDS011;59767;51.344;12.362;2022-10-30T05:44:57;17.27;;;5.63;;
71896;SDS011;59767;51.344;12.362;2022-10-30T05:48:05;16.80;;;5.50;;
71896;SDS011;59767;51.344;12.362;2022-10-30T05:51:09;20.63;;;5.68;;
71896;SDS011;59767;51.344;12.362;2022-10-30T05:54:13;15.07;;;5.40;;
71896;SDS011;59767;51.344;12.362;2022-10-30T05:57:17;18.10;;;5.40;;
71896;SDS011;59767;51.344;12.362;2022-10-30T06:00:21;15.20;;;4.88;;
71896;SDS011;59767;51.344;12.362;2022-10-30T06:03:25;17.08;;;5.70;;
71896;SDS011;59767;51.344;12.362;2022-10-30T06:06:29;21.65;;;5.90;;
71896;SDS011;59767;51.344;12.362;2022-10-30T06:09:33;17.95;;;5.43;;
71896;SDS011;59767;51.344;12.362;2022-10-30T06:12:36;19.98;;;5.40;;
71896;SDS011;59767;51.344;12.362;2022-10-30T06:15:40;16.83;;;5.47;;
71896;SDS011;59767;51.344;12.362;2022-10-30T06:18:44;19.02;;;5.60;;
71896;SDS011;59767;51.344;12.362;2022-10-30T06:21:48;13.55;;;5.15;;
71896;SDS011;59767;51.344;12.362;2022-10-30T06:24:52;19.30;;;5.32;;
71896;SDS011;59767;51.344;12.362;2022-10-30T06:27:56;15.30;;;5.45;;
71896;SDS011;59767;51.344;12.362;2022-10-30T06:31:01;15.23;;;5.40;;
71896;SDS011;59767;51.344;12.362;2022-10-30T06:34:05;15.60;;;5.72;;
71896;SDS011;59767;51.344;12.362;2022-10-30T06:37:10;17.98;;;6.00;;
71896;SDS011;59767;51.344;12.362;2022-10-30T06:40:14;19.00;;;5.57;;
71896;SDS011;59767;51.344;12.362;2022-10-30T06:43:19;17.52;;;5.30;;
71896;SDS011;59767;51.344;12.362;2022-10-30T06:46:23;25.25;;;5.95;;
71896;SDS011;59767;51.344;12.362;2022-10-30T06:49:33;20.42;;;5.72;;
71896;SDS011;59767;51.344;12.362;2022-10-30T06:52:37;18.15;;;5.03;;
71896;SDS011;59767;51.344;12.362;2022-10-30T06:55:41;15.10;;;5.22;;
71896;SDS011;59767;51.344;12.362;2022-10-30T06:58:45;12.35;;;5.30;;
71896;SDS011;59767;51.344;12.362;2022-10-30T07:01:49;20.95;;;5.78;;
71896;SDS011;59767;51.344;12.362;2022-10-30T07:05:00;15.23;;;5.32;;
71896;SDS011;59767;51.344;12.362;2022-10-30T07:08:04;22.15;;;5.60;;
71896;SDS011;59767;51.344;12.362;2022-10-30T07:11:08;18.83;;;5.18;;
71896;SDS011;59767;51.344;12.362;2022-10-30T07:14:12;14.65;;;4.82;;
71896;SDS011;59767;51.344;12.362;2022-10-30T07:17:16;21.02;;;5.63;;
71896;SDS011;59767;51.344;12.362;2022-10-30T07:20:20;21.45;;;5.47;;
71896;SDS011;59767;51.344;12.362;2022-10-30T07:23:25;17.77;;;5.18;;
71896;SDS011;59767;51.344;12.362;2022-10-30T07:26:29;13.13;;;5.40;;
71896;SDS011;59767;51.344;12.362;2022-10-30T07:29:33;17.13;;;5.30;;
71896;SDS011;59767;51.344;12.362;2022-10-30T07:32:37;14.50;;;4.70;;
71896;SDS011;59767;51.344;12.362;2022-10-30T07:35:41;17.75;;;5.55;;
71896;SDS011;59767;51.344;12.362;2022-10-30T07:38:49;16.77;;;5.65;;
71896;SDS011;59767;51.344;12.362;2022-10-30T07:41:54;17.55;;;4.90;;
71896;SDS011;59767;51.344;12.362;2022-10-30T07:44:58;17.67;;;5.20;;
71896;SDS011;59767;51.344;12.362;2022-10-30T07:48:02;16.67;;;4.88;;
71896;SDS011;59767;51.344;12.362;2022-10-30T07:51:07;15.25;;;5.50;;
71896;SDS011;59767;51.344;12.362;2022-10-30T07:54:11;14.40;;;5.30;;
71896;SDS011;59767;51.344;12.362;2022-10-30T07:57:15;16.58;;;5.07;;
71896;SDS011;59767;51.344;12.362;2022-10-30T08:00:19;18.30;;;5.43;;
71896;SDS011;59767;51.344;12.362;2022-10-30T08:03:23;14.35;;;4.78;;
71896;SDS011;59767;51.344;12.362;2022-10-30T08:06:27;15.75;;;4.60;;
71896;SDS011;59767;51.344;12.362;2022-10-30T08:09:31;16.05;;;4.70;;
71896;SDS011;59767;51.344;12.362;2022-10-30T08:12:35;18.30;;;4.55;;
71896;SDS011;59767;51.344;12.362;2022-10-30T08:15:41;16.85;;;4.68;;
71896;SDS011;59767;51.344;12.362;2022-10-30T08:18:45;17.50;;;4.95;;
71896;SDS011;59767;51.344;12.362;2022-10-30T08:21:50;16.23;;;4.82;;
71896;SDS011;59767;51.344;12.362;2022-10-30T08:25:00;16.50;;;4.70;;
71896;SDS011;59767;51.344;12.362;2022-10-30T08:28:05;13.70;;;4.53;;
71896;SDS011;59767;51.344;12.362;2022-10-30T08:31:10;15.60;;;4.68;;
71896;SDS011;59767;51.344;12.362;2022-10-30T08:34:13;18.67;;;4.90;;
71896;SDS011;59767;51.344;12.362;2022-10-30T08:37:18;15.35;;;4.70;;
71896;SDS011;59767;51.344;12.362;2022-10-30T08:40:22;18.23;;;5.10;;
71896;SDS011;59767;51.344;12.362;2022-10-30T08:43:27;19.45;;;4.90;;
71896;SDS011;59767;51.344;12.362;2022-10-30T08:46:31;19.77;;;5.20;;
71896;SDS011;59767;51.344;12.362;2022-10-30T08:49:35;18.63;;;4.78;;
71896;SDS011;59767;51.344;12.362;2022-10-30T08:52:39;17.50;;;4.57;;
71896;SDS011;59767;51.344;12.362;2022-10-30T08:55:43;20.13;;;5.10;;
71896;SDS011;59767;51.344;12.362;2022-10-30T08:58:47;18.08;;;5.32;;
71896;SDS011;59767;51.344;12.362;2022-10-30T09:01:53;20.20;;;4.97;;
71896;SDS011;59767;51.344;12.362;2022-10-30T09:04:57;16.05;;;4.80;;
71896;SDS011;59767;51.344;12.362;2022-10-30T09:08:01;13.77;;;4.85;;
71896;SDS011;59767;51.344;12.362;2022-10-30T09:11:05;17.40;;;4.85;;
71896;SDS011;59767;51.344;12.362;2022-10-30T09:14:10;19.13;;;4.63;;
71896;SDS011;59767;51.344;12.362;2022-10-30T09:17:14;18.92;;;5.03;;
71896;SDS011;59767;51.344;12.362;2022-10-30T09:20:18;16.40;;;4.53;;
71896;SDS011;59767;51.344;12.362;2022-10-30T09:23:22;15.35;;;4.35;;
71896;SDS011;59767;51.344;12.362;2022-10-30T09:26:26;19.63;;;5.15;;
71896;SDS011;59767;51.344;12.362;2022-10-30T09:29:31;16.00;;;4.75;;
71896;SDS011;59767;51.344;12.362;2022-10-30T09:32:36;19.67;;;4.65;;
71896;SDS011;59767;51.344;12.362;2022-10-30T09:35:39;17.98;;;5.00;;
71896;SDS011;59767;51.344;12.362;2022-10-30T09:38:43;23.10;;;5.28;;
71896;SDS011;59767;51.344;12.362;2022-10-30T09:55:41;13.13;;;4.10;;
71896;SDS011;59767;51.344;12.362;2022-10-30T10:02:22;21.05;;;3.95;;
71896;SDS011;59767;51.344;12.362;2022-10-30T10:09:06;22.90;;;4.75;;
71896;SDS011;59767;51.344;12.362;2022-10-30T10:12:25;18.58;;;4.65;;
71896;SDS011;59767;51.344;12.362;2022-10-30T10:15:38;15.05;;;4.00;;
71896;SDS011;59767;51.344;12.362;2022-10-30T10:18:54;17.48;;;4.03;;
71896;SDS011;59767;51.344;12.362;2022-10-30T10:22:05;21.05;;;4.30;;
71896;SDS011;59767;51.344;12.362;2022-10-30T10:25:20;13.18;;;3.83;;
71896;SDS011;59767;51.344;12.362;2022-10-30T10:31:54;13.05;;;3.70;;
71896;SDS011;59767;51.344;12.362;2022-10-30T10:39:24;16.02;;;3.97;;
71896;SDS011;59767;51.344;12.362;2022-10-30T10:42:24;20.40;;;4.00;;
71896;SDS011;59767;51.344;12.362;2022-10-30T10:52:34;16.10;;;3.70;;
71896;SDS011;59767;51.344;12.362;2022-10-30T10:55:39;22.27;;;3.90;;
71896;SDS011;59767;51.344;12.362;2022-10-30T10:58:50;20.85;;;3.80;;
71896;SDS011;59767;51.344;12.362;2022-10-30T11:05:15;13.63;;;3.67;;
71896;SDS011;59767;51.344;12.362;2022-10-30T11:08:28;20.15;;;4.32;;
71896;SDS011;59767;51.344;12.362;2022-10-30T11:11:33;21.02;;;3.70;;
71896;SDS011;59767;51.344;12.362;2022-10-30T11:14:38;20.95;;;4.00;;
71896;SDS011;59767;51.344;12.362;2022-10-30T11:18:25;17.70;;;3.90;;
71896;SDS011;59767;51.344;12.362;2022-10-30T11:21:20;14.23;;;3.50;;
71896;SDS011;59767;51.344;12.362;2022-10-30T11:24:28;15.60;;;3.60;;
71896;SDS011;59767;51.344;12.362;2022-10-30T11:27:38;16.05;;;4.00;;
71896;SDS011;59767;51.344;12.362;2022-10-30T11:30:42;19.05;;;4.22;;
71896;SDS011;59767;51.344;12.362;2022-10-30T11:33:46;15.38;;;3.80;;
71896;SDS011;59767;51.344;12.362;2022-10-30T11:36:51;14.90;;;3.90;;
71896;SDS011;59767;51.344;12.362;2022-10-30T11:40:16;19.42;;;4.15;;
71896;SDS011;59767;51.344;12.362;2022-10-30T11:43:24;18.20;;;4.00;;
71896;SDS011;59767;51.344;12.362;2022-10-30T11:46:28;16.65;;;3.90;;
71896;SDS011;59767;51.344;12.362;2022-10-30T11:49:40;18.05;;;4.78;;
71896;SDS011;59767;51.344;12.362;2022-10-30T11:52:50;17.23;;;3.95;;
71896;SDS011;59767;51.344;12.362;2022-10-30T11:55:58;15.00;;;3.60;;
71896;SDS011;59767;51.344;12.362;2022-10-30T11:59:02;13.90;;;3.60;;
71896;SDS011;59767;51.344;12.362;2022-10-30T12:02:18;17.90;;;4.40;;
71896;SDS011;59767;51.344;12.362;2022-10-30T12:08:34;15.63;;;3.90;;
71896;SDS011;59767;51.344;12.362;2022-10-30T12:11:39;18.48;;;4.20;;
71896;SDS011;59767;51.344;12.362;2022-10-30T12:14:46;14.18;;;3.78;;
71896;SDS011;59767;51.344;12.362;2022-10-30T12:17:51;15.60;;;4.00;;
71896;SDS011;59767;51.344;12.362;2022-10-30T12:21:18;18.00;;;3.83;;
71896;SDS011;59767;51.344;12.362;2022-10-30T12:24:30;21.73;;;4.40;;
71896;SDS011;59767;51.344;12.362;2022-10-30T12:27:37;18.88;;;3.67;;
71896;SDS011;59767;51.344;12.362;2022-10-30T12:30:45;15.60;;;3.70;;
71896;SDS011;59767;51.344;12.362;2022-10-30T12:37:25;22.13;;;3.95;;
71896;SDS011;59767;51.344;12.362;2022-10-30T12:40:35;15.10;;;3.78;;
71896;SDS011;59767;51.344;12.362;2022-10-30T12:43:47;18.30;;;3.70;;
71896;SDS011;59767;51.344;12.362;2022-10-30T12:47:10;15.35;;;3.95;;
71896;SDS011;59767;51.344;12.362;2022-10-30T12:54:12;21.05;;;4.10;;
71896;SDS011;59767;51.344;12.362;2022-10-30T12:57:30;11.85;;;3.42;;
71896;SDS011;59767;51.344;12.362;2022-10-30T13:00:47;20.15;;;4.20;;
71896;SDS011;59767;51.344;12.362;2022-10-30T13:07:46;22.20;;;4.30;;
71896;SDS011;59767;51.344;12.362;2022-10-30T13:10:57;20.85;;;4.32;;
71896;SDS011;59767;51.344;12.362;2022-10-30T13:14:10;17.23;;;3.90;;
71896;SDS011;59767;51.344;12.362;2022-10-30T13:17:22;23.73;;;4.30;;
71896;SDS011;59767;51.344;12.362;2022-10-30T13:20:26;24.48;;;4.03;;
71896;SDS011;59767;51.344;12.362;2022-10-30T13:23:36;17.48;;;3.88;;
71896;SDS011;59767;51.344;12.362;2022-10-30T13:30:02;21.13;;;3.70;;
71896;SDS011;59767;51.344;12.362;2022-10-30T13:33:14;17.45;;;3.70;;
71896;SDS011;59767;51.344;12.362;2022-10-30T13:36:48;18.52;;;4.03;;
71896;SDS011;59767;51.344;12.362;2022-10-30T13:40:09;19.40;;;4.13;;
71896;SDS011;59767;51.344;12.362;2022-10-30T13:43:31;18.50;;;3.78;;
71896;SDS011;59767;51.344;12.362;2022-10-30T13:46:57;18.80;;;4.55;;
71896;SDS011;59767;51.344;12.362;2022-10-30T13:54:00;17.33;;;4.40;;
71896;SDS011;59767;51.344;12.362;2022-10-30T14:07:26;19.25;;;4.95;;
71896;SDS011;59767;51.344;12.362;2022-10-30T14:13:56;15.27;;;4.18;;
71896;SDS011;59767;51.344;12.362;2022-10-30T14:17:11;17.10;;;3.90;;
71896;SDS011;59767;51.344;12.362;2022-10-30T14:20:20;17.02;;;4.57;;
71896;SDS011;59767;51.344;12.362;2022-10-30T14:23:31;24.27;;;4.30;;
71896;SDS011;59767;51.344;12.362;2022-10-30T14:26:38;16.85;;;3.60;;
71896;SDS011;59767;51.344;12.362;2022-10-30T14:29:55;17.23;;;3.95;;
71896;SDS011;59767;51.344;12.362;2022-10-30T14:33:00;17.70;;;3.92;;
71896;SDS011;59767;51.344;12.362;2022-10-30T14:36:22;19.55;;;3.63;;
71896;SDS011;59767;51.344;12.362;2022-10-30T14:39:49;14.60;;;3.75;;
71896;SDS011;59767;51.344;12.362;2022-10-30T14:42:54;15.57;;;3.40;;
71896;SDS011;59767;51.344;12.362;2022-10-30T14:49:34;13.55;;;3.67;;
71896;SDS011;59767;51.344;12.362;2022-10-30T14:59:38;18.75;;;4.00;;
71896;SDS011;59767;51.344;12.362;2022-10-30T15:16:06;15.90;;;3.55;;
71896;SDS011;59767;51.344;12.362;2022-10-30T15:19:11;16.13;;;3.80;;
71896;SDS011;59767;51.344;12.362;2022-10-30T15:22:19;14.15;;;4.40;;
71896;SDS011;59767;51.344;12.362;2022-10-30T15:25:28;17.13;;;4.20;;
71896;SDS011;59767;51.344;12.362;2022-10-30T15:28:37;17.02;;;4.60;;
71896;SDS011;59767;51.344;12.362;2022-10-30T15:31:41;18.38;;;5.57;;
71896;SDS011;59767;51.344;12.362;2022-10-30T15:38:18;18.42;;;6.38;;
71896;SDS011;59767;51.344;12.362;2022-10-30T15:41:22;19.52;;;5.82;;
71896;SDS011;59767;51.344;12.362;2022-10-30T15:44:27;20.02;;;6.38;;
71896;SDS011;59767;51.344;12.362;2022-10-30T15:47:34;19.83;;;6.35;;
71896;SDS011;59767;51.344;12.362;2022-10-30T15:50:40;19.15;;;5.78;;
71896;SDS011;59767;51.344;12.362;2022-10-30T15:56:57;20.70;;;5.88;;
71896;SDS011;59767;51.344;12.362;2022-10-30T16:00:24;21.58;;;5.45;;
71896;SDS011;59767;51.344;12.362;2022-10-30T16:03:30;21.80;;;6.05;;
71896;SDS011;59767;51.344;12.362;2022-10-30T16:06:35;22.83;;;5.57;;
71896;SDS011;59767;51.344;12.362;2022-10-30T16:09:47;26.48;;;6.10;;
71896;SDS011;59767;51.344;12.362;2022-10-30T16:12:55;19.58;;;5.70;;
71896;SDS011;59767;51.344;12.362;2022-10-30T16:16:01;27.50;;;6.53;;
71896;SDS011;59767;51.344;12.362;2022-10-30T16:19:06;20.67;;;6.15;;
71896;SDS011;59767;51.344;12.362;2022-10-30T16:22:12;24.95;;;6.05;;
71896;SDS011;59767;51.344;12.362;2022-10-30T16:25:19;24.30;;;6.93;;
71896;SDS011;59767;51.344;12.362;2022-10-30T16:28:28;22.13;;;6.20;;
71896;SDS011;59767;51.344;12.362;2022-10-30T16:31:33;23.33;;;6.22;;
71896;SDS011;59767;51.344;12.362;2022-10-30T16:34:38;23.10;;;6.53;;
71896;SDS011;59767;51.344;12.362;2022-10-30T16:37:44;21.63;;;6.82;;
71896;SDS011;59767;51.344;12.362;2022-10-30T16:40:49;22.45;;;6.95;;
71896;SDS011;59767;51.344;12.362;2022-10-30T16:44:06;21.50;;;7.10;;
71896;SDS011;59767;51.344;12.362;2022-10-30T16:50:20;24.65;;;8.45;;
71896;SDS011;59767;51.344;12.362;2022-10-30T16:53:25;25.35;;;7.15;;
71896;SDS011;59767;51.344;12.362;2022-10-30T16:56:30;29.55;;;7.68;;
71896;SDS011;59767;51.344;12.362;2022-10-30T16:59:36;21.13;;;8.02;;
71896;SDS011;59767;51.344;12.362;2022-10-30T17:02:47;26.67;;;7.85;;
71896;SDS011;59767;51.344;12.362;2022-10-30T17:06:00;24.23;;;8.00;;
71896;SDS011;59767;51.344;12.362;2022-10-30T17:09:20;28.55;;;8.35;;
71896;SDS011;59767;51.344;12.362;2022-10-30T17:12:27;31.23;;;8.70;;
71896;SDS011;59767;51.344;12.362;2022-10-30T17:15:32;25.95;;;9.07;;
71896;SDS011;59767;51.344;12.362;2022-10-30T17:18:36;32.10;;;10.75;;
71896;SDS011;59767;51.344;12.362;2022-10-30T17:21:41;30.63;;;10.93;;
71896;SDS011;59767;51.344;12.362;2022-10-30T17:24:45;30.90;;;11.45;;
71896;SDS011;59767;51.344;12.362;2022-10-30T17:27:50;41.88;;;11.02;;
71896;SDS011;59767;51.344;12.362;2022-10-30T17:30:54;35.78;;;11.50;;
71896;SDS011;59767;51.344;12.362;2022-10-30T17:34:13;34.78;;;11.20;;
71896;SDS011;59767;51.344;12.362;2022-10-30T17:37:19;38.28;;;11.40;;
71896;SDS011;59767;51.344;12.362;2022-10-30T17:40:22;33.88;;;10.82;;
71896;SDS011;59767;51.344;12.362;2022-10-30T17:43:27;28.48;;;10.50;;
71896;SDS011;59767;51.344;12.362;2022-10-30T17:46:32;26.30;;;9.73;;
71896;SDS011;59767;51.344;12.362;2022-10-30T17:49:36;28.33;;;10.10;;
71896;SDS011;59767;51.344;12.362;2022-10-30T17:52:41;32.95;;;10.70;;
71896;SDS011;59767;51.344;12.362;2022-10-30T17:55:45;29.70;;;10.57;;
71896;SDS011;59767;51.344;12.362;2022-10-30T17:58:57;20.83;;;9.30;;
71896;SDS011;59767;51.344;12.362;2022-10-30T18:02:01;27.08;;;9.40;;
71896;SDS011;59767;51.344;12.362;2022-10-30T18:05:10;24.67;;;9.70;;
71896;SDS011;59767;51.344;12.362;2022-10-30T18:08:18;25.27;;;9.73;;
71896;SDS011;59767;51.344;12.362;2022-10-30T18:11:22;31.13;;;10.43;;
71896;SDS011;59767;51.344;12.362;2022-10-30T18:14:27;22.77;;;9.73;;
71896;SDS011;59767;51.344;12.362;2022-10-30T18:17:31;25.85;;;10.13;;
71896;SDS011;59767;51.344;12.362;2022-10-30T18:20:35;34.40;;;10.30;;
71896;SDS011;59767;51.344;12.362;2022-10-30T18:23:39;31.52;;;10.80;;
71896;SDS011;59767;51.344;12.362;2022-10-30T18:26:58;24.27;;;10.55;;
71896;SDS011;59767;51.344;12.362;2022-10-30T18:30:02;29.70;;;11.30;;
71896;SDS011;59767;51.344;12.362;2022-10-30T18:33:08;30.52;;;10.85;;
71896;SDS011;59767;51.344;12.362;2022-10-30T18:36:21;31.52;;;10.48;;
71896;SDS011;59767;51.344;12.362;2022-10-30T18:39:26;28.02;;;11.38;;
71896;SDS011;59767;51.344;12.362;2022-10-30T18:42:30;34.05;;;11.15;;
71896;SDS011;59767;51.344;12.362;2022-10-30T18:45:35;31.10;;;11.57;;
71896;SDS011;59767;51.344;12.362;2022-10-30T18:48:41;25.63;;;10.90;;
71896;SDS011;59767;51.344;12.362;2022-10-30T18:51:46;33.33;;;11.07;;
71896;SDS011;59767;51.344;12.362;2022-10-30T18:54:49;34.53;;;13.18;;
71896;SDS011;59767;51.344;12.362;2022-10-30T18:57:53;36.05;;;12.63;;
71896;SDS011;59767;51.344;12.362;2022-10-30T19:00:57;30.65;;;12.93;;
71896;SDS011;59767;51.344;12.362;2022-10-30T19:04:14;28.60;;;12.23;;
71896;SDS011;59767;51.344;12.362;2022-10-30T19:07:25;36.92;;;13.82;;
71896;SDS011;59767;51.344;12.362;2022-10-30T19:10:30;36.65;;;12.80;;
71896;SDS011;59767;51.344;12.362;2022-10-30T19:13:36;31.67;;;12.75;;
71896;SDS011;59767;51.344;12.362;2022-10-30T19:16:40;28.98;;;12.07;;
71896;SDS011;59767;51.344;12.362;2022-10-30T19:19:44;28.45;;;12.52;;
71896;SDS011;59767;51.344;12.362;2022-10-30T19:22:48;32.50;;;12.60;;
71896;SDS011;59767;51.344;12.362;2022-10-30T19:25:53;27.52;;;12.18;;
71896;SDS011;59767;51.344;12.362;2022-10-30T19:28:57;26.00;;;12.30;;
71896;SDS011;59767;51.344;12.362;2022-10-30T19:32:01;36.38;;;12.85;;
71896;SDS011;59767;51.344;12.362;2022-10-30T19:35:05;33.38;;;13.00;;
71896;SDS011;59767;51.344;12.362;2022-10-30T19:38:10;31.98;;;12.00;;
71896;SDS011;59767;51.344;12.362;2022-10-30T19:41:15;45.85;;;12.73;;
71896;SDS011;59767;51.344;12.362;2022-10-30T19:44:19;39.38;;;13.10;;
71896;SDS011;59767;51.344;12.362;2022-10-30T19:47:23;53.97;;;28.42;;
71896;SDS011;59767;51.344;12.362;2022-10-30T19:50:35;32.85;;;12.73;;
71896;SDS011;59767;51.344;12.362;2022-10-30T19:53:39;32.00;;;11.95;;
71896;SDS011;59767;51.344;12.362;2022-10-30T19:56:43;29.35;;;11.98;;
71896;SDS011;59767;51.344;12.362;2022-10-30T19:59:47;26.38;;;11.75;;
71896;SDS011;59767;51.344;12.362;2022-10-30T20:02:53;31.98;;;12.55;;
71896;SDS011;59767;51.344;12.362;2022-10-30T20:05:58;32.30;;;12.90;;
71896;SDS011;59767;51.344;12.362;2022-10-30T20:09:02;37.67;;;13.48;;
71896;SDS011;59767;51.344;12.362;2022-10-30T20:12:08;27.40;;;11.82;;
71896;SDS011;59767;51.344;12.362;2022-10-30T20:15:13;33.45;;;13.20;;
71896;SDS011;59767;51.344;12.362;2022-10-30T20:18:20;28.05;;;12.35;;
71896;SDS011;59767;51.344;12.362;2022-10-30T20:21:26;31.92;;;11.55;;
71896;SDS011;59767;51.344;12.362;2022-10-30T20:24:30;25.38;;;10.82;;